Terminal Aerodrome Forecast
Issued by NWS

Home | Current Version | Previous Version | Text Only | Print | Product List | Glossary Off
Versions: 1 2 3 4 5 6 7 8 9 10 11 12 13 14

000
FTUS45 KGGW 190500
TAFGDV
TAF
KGDV 190525Z 1906/2006 VRB05KT P6SM BKN100
     FM190900 27015KT P6SM BKN070
     FM191800 27018KT P6SM SCT250
     FM200300 VRB03KT P6SM SKC
      AMD LTD TO CLD VIS AND WIND=

USA.gov is the U.S. government's official web portal to all federal, state and local government web resources and services.